Data for 02/11/2005

Time Sea-Level Adjusted Pressure Absolute Pressure Temperature Relative Humidity Dew Point   
(mb) (inHg) (mb) (inHg) (C) (F) (%) (C) (F)
00:05 1022 30.18 852 25.16 -0.4 31.3 41 -12.2 10.1
00:10 1022 30.18 852 25.16 -1.5 29.3 43 -12.6 9.4
00:15 1023 30.21 852 25.16 -1.2 29.8 41 -13 8.6
00:20 1023 30.21 852 25.16 -0.9 30.4 37 -13.8 7.2
00:25 1023 30.21 852 25.16 -0.3 31.5 37 -13.3 8
00:30 1023 30.21 852 25.16 -0.6 31 38 -13.1 8.3
00:35 1023 30.21 852 25.16 -0.7 30.7 39 -13.1 8.5
00:40 1023 30.21 852 25.16 -1 30.2 41 -12.7 9.1
00:45 1023 30.21 852 25.16 -1.2 29.8 41 -12.8 8.9
00:50 1023 30.21 852 25.16 -1.2 29.9 40 -13 8.6
00:55 1023 30.21 852 25.16 -1.1 30 40 -13 8.6
01:00 1023 30.21 852 25.16 -0.9 30.3 40 -13.1 8.5
01:05 1023 30.21 852 25.16 -1 30.1 40 -13 8.6
01:10 1023 30.21 852 25.16 -1.1 30.1 40 -13.1 8.4
01:15 1023 30.21 852 25.16 -1.5 29.3 42 -12.7 9.1
01:20 1023 30.21 852 25.16 -2 28.4 43 -13 8.6
01:25 1023 30.21 852 25.16 -1.8 28.7 42 -13 8.6
01:30 1022 30.18 852 25.16 -1.6 29.1 41 -13.1 8.3
01:35 1022 30.18 852 25.16 -1.5 29.2 41 -13.1 8.5
01:40 1022 30.18 852 25.16 -1.6 29.1 41 -13.1 8.5
01:45 1022 30.18 852 25.16 -1.6 29.2 41 -13.2 8.3
01:50 1022 30.18 852 25.16 -1.6 29.2 40 -13.5 7.6
01:55 1022 30.18 852 25.16 -1.6 29.1 41 -13.3 8.1
02:00 1022 30.18 852 25.16 -1.7 29 41 -13.3 8.1
02:05 1022 30.18 851 25.13 -1.5 29.3 41 -13 8.5
02:10 1022 30.18 851 25.13 -1.9 28.6 43 -13 8.6
02:15 1022 30.18 851 25.13 -1.9 28.7 42 -13.1 8.4
02:20 1022 30.18 851 25.13 -2.3 27.9 44 -13 8.6
02:25 1022 30.18 851 25.13 -2.4 27.8 43 -13.3 8.1
02:30 1022 30.18 851 25.13 -2.3 27.9 43 -13.3 8
02:35 1022 30.18 851 25.13 -2.2 28 41 -13.7 7.4
02:40 1022 30.18 851 25.13 -1.8 28.7 39 -14 6.9
02:45 1022 30.18 851 25.13 -1.4 29.5 39 -13.7 7.3
02:50 1022 30.18 851 25.13 -1.5 29.3 40 -13.4 7.9
02:55 1022 30.18 851 25.13 -1.9 28.6 41 -13.5 7.7
03:00 1022 30.18 851 25.13 -1.9 28.5 41 -13.7 7.4
03:05 1022 30.18 851 25.13 -1.9 28.7 41 -13.4 7.9
03:10 1022 30.18 851 25.13 -2.2 28.1 42 -13.4 7.8
03:15 1022 30.18 851 25.13 -2.3 27.9 43 -13.2 8.2
03:20 1022 30.18 851 25.13 -2.5 27.5 44 -13.1 8.4
03:25 1022 30.18 851 25.13 -2.3 27.8 43 -13.3 8.1
03:30 1022 30.18 851 25.13 -2 28.4 42 -13.3 8
03:35 1022 30.18 851 25.13 -2.3 27.9 43 -13.4 8
03:40 1022 30.18 851 25.13 -2.5 27.5 43 -13.5 7.7
03:45 1022 30.18 851 25.13 -2.1 28.2 40 -14 6.8
03:50 1022 30.18 851 25.13 -1.4 29.5 38 -14 6.7
03:55 1022 30.18 851 25.13 -1.1 30 38 -13.9 7
04:00 1022 30.18 851 25.13 -0.9 30.4 37 -14 6.8
04:05 1022 30.18 851 25.13 -1 30.2 38 -13.5 7.7
04:10 1022 30.18 851 25.13 -1.3 29.6 39 -13.5 7.8
04:15 1022 30.18 851 25.13 -1.6 29.1 40 -13.4 7.8
04:20 1022 30.18 851 25.13 -1.8 28.7 41 -13.4 7.9
04:25 1022 30.18 851 25.13 -2.1 28.2 43 -13.2 8.3
04:30 1022 30.18 851 25.13 -2.4 27.7 42 -13.7 7.4
04:35 1022 30.18 851 25.13 -2.4 27.8 42 -13.6 7.5
04:40 1021 30.15 851 25.13 -2.2 28 41 -13.8 7.1
04:45 1021 30.15 851 25.13 -2.1 28.3 41 -13.7 7.3
04:50 1021 30.15 851 25.13 -2 28.4 40 -13.8 7.2
04:55 1021 30.15 851 25.13 -2 28.5 39 -14.1 6.6
05:00 1021 30.15 851 25.13 -1.6 29.1 38 -14.2 6.5
05:05 1021 30.15 851 25.13 -1.6 29.1 39 -13.8 7.1
05:10 1021 30.15 850 25.1 -1.6 29.2 38 -14.1 6.7
05:15 1021 30.15 851 25.13 -1.3 29.6 38 -14.1 6.6
05:20 1021 30.15 851 25.13 -1.5 29.4 39 -13.8 7.1
05:25 1021 30.15 851 25.13 -1.5 29.2 38 -14.1 6.7
05:30 1021 30.15 851 25.13 -1.4 29.4 38 -14 6.8
05:35 1021 30.15 851 25.13 -1.5 29.4 37 -14.3 6.2
05:40 1021 30.15 851 25.13 -1.9 28.6 40 -13.9 7
05:45 1021 30.15 851 25.13 -2 28.4 39 -14.2 6.5
05:50 1021 30.15 851 25.13 -2.4 27.8 42 -13.5 7.7
05:55 1021 30.15 851 25.13 -2.8 27 42 -14.1 6.6
06:00 1021 30.15 851 25.13 -2.4 27.6 41 -14 6.8
06:05 1021 30.15 851 25.13 -2.8 27 43 -13.7 7.3
06:10 1021 30.15 851 25.13 -3.2 26.3 46 -13.3 8.1
06:15 1021 30.15 851 25.13 -3.6 25.5 48 -13.1 8.4
06:20 1021 30.15 851 25.13 -3.3 26 44 -13.9 7.1
06:25 1021 30.15 851 25.13 -2.9 26.8 45 -13.2 8.2
06:30 1021 30.15 851 25.13 -3.4 25.8 45 -13.7 7.4
06:35 1021 30.15 851 25.13 -3.3 26.1 43 -14.1 6.7
06:40 1021 30.15 851 25.13 -2.9 26.8 42 -14.1 6.7
06:45 1021 30.15 850 25.1 -2.9 26.7 43 -14 6.8
06:50 1021 30.15 850 25.1 -2.8 26.9 42 -13.9 6.9
06:55 1021 30.15 850 25.1 -2.9 26.7 43 -13.8 7.2
07:00 1021 30.15 850 25.1 -3.3 26.1 43 -14.1 6.6
07:05 1021 30.15 851 25.13 -2.8 27 40 -14.5 5.9
07:10 1021 30.15 850 25.1 -2.1 28.3 37 -14.8 5.3
07:15 1021 30.15 850 25.1 -1.9 28.6 38 -14.4 6.1
07:20 1021 30.15 850 25.1 -2.2 28 40 -14 6.7
07:25 1021 30.15 850 25.1 -3.1 26.4 45 -13.5 7.7
07:30 1021 30.15 850 25.1 -4 24.8 48 -13.6 7.5
07:35 1021 30.15 850 25.1 -3.5 25.7 42 -14.7 5.6
07:40 1021 30.15 850 25.1 -2.7 27.1 40 -14.6 5.7
07:45 1021 30.15 850 25.1 -2.1 28.1 38 -14.6 5.7
07:50 1021 30.15 850 25.1 -2 28.3 39 -14.3 6.2
07:55 1021 30.15 850 25.1 -3.1 26.4 44 -13.6 7.6
08:00 1021 30.15 850 25.1 -2.8 26.9 39 -15 5
08:05 1021 30.15 850 25.1 -1.5 29.2 36 -14.8 5.4
08:10 1021 30.15 850 25.1 -1.3 29.6 36 -14.4 6
08:15 1021 30.15 850 25.1 -1.6 29.1 37 -14.6 5.8
08:20 1021 30.15 850 25.1 -1.6 29.2 37 -14.3 6.2
08:25 1021 30.15 850 25.1 -1.5 29.3 36 -14.6 5.7
08:30 1021 30.15 850 25.1 -1.1 30 36 -14.5 5.9
08:35 1021 30.15 850 25.1 -1.2 29.8 37 -14.1 6.7
08:40 1021 30.15 850 25.1 -1.8 28.8 38 -14.2 6.4
08:45 1021 30.15 850 25.1 -1.7 28.9 39 -13.8 7.1
08:50 1021 30.15 850 25.1 -1.3 29.7 42 -12.6 9.3
08:55 1021 30.15 850 25.1 -1.3 29.7 40 -13.1 8.3
09:00 1021 30.15 850 25.1 -1 30.2 36 -14.3 6.3
09:05 1021 30.15 850 25.1 -0.9 30.4 36 -14 6.8
09:10 1021 30.15 850 25.1 -0.8 30.5 39 -13.1 8.3
09:15 1021 30.15 850 25.1 -0.7 30.7 38 -13.4 7.8
09:20 1021 30.15 850 25.1 -0.5 31.1 37 -13.5 7.7
09:25 1021 30.15 850 25.1 -0.1 31.8 36 -13.4 7.8
09:30 1021 30.15 850 25.1 0.6 33.1 33 -13.8 7.2
09:35 1021 30.15 850 25.1 1.4 34.5 31 -13.9 7
09:40 1021 30.15 850 25.1 2.1 35.7 30 -13.8 7.2
09:45 1020 30.12 850 25.1 2.2 35.9 30 -13.8 7.1
09:50 1021 30.15 850 25.1 2 35.7 31 -13.5 7.7
09:55 1021 30.15 850 25.1 2.3 36.2 31 -13.3 8
10:00 1021 30.15 850 25.1 3.5 38.3 27 -13.7 7.3
10:05 1020 30.12 850 25.1 3.8 38.8 26 -14.2 6.5
10:10 1020 30.12 850 25.1 4.2 39.5 25 -14.2 6.4
10:15 1020 30.12 850 25.1 4.7 40.5 26 -13.3 8.1
10:20 1020 30.12 850 25.1 5 41.1 26 -13.1 8.5
10:25 1020 30.12 850 25.1 5.4 41.7 27 -12.3 9.8
10:30 1020 30.12 849 25.07 5.3 41.6 26 -12.9 8.7
10:35 1020 30.12 849 25.07 5.5 42 24 -13.6 7.6
10:40 1020 30.12 849 25.07 5.5 41.9 24 -13.3 8
10:45 1020 30.12 849 25.07 5 41 24 -13.8 7.2
10:50 1020 30.12 849 25.07 5.6 42.1 24 -13.7 7.4
10:55 1020 30.12 849 25.07 5.3 41.5 24 -13.7 7.3
11:00 1020 30.12 849 25.07 5.9 42.7 24 -13.2 8.3
11:05 1020 30.12 849 25.07 6.4 43.5 23 -13.1 8.4
11:10 1020 30.12 849 25.07 6.3 43.4 23 -13.1 8.4
11:15 1020 30.12 849 25.07 6.2 43.1 23 -13.4 8
11:20 1020 30.12 849 25.07 5.8 42.5 24 -13 8.5
11:25 1020 30.12 849 25.07 6.7 44.1 24 -12.3 9.8
11:30 1020 30.12 849 25.07 7 44.5 25 -12 10.4
11:35 1020 30.12 849 25.07 7.3 45.1 23 -12.5 9.5
11:40 1019 30.09 849 25.07 7.6 45.6 23 -12.4 9.6
11:45 1019 30.09 849 25.07 7.7 45.8 23 -12.3 9.8
11:50 1019 30.09 848 25.04 7.2 44.9 24 -12.1 10.3
11:55 1019 30.09 848 25.04 7.4 45.3 23 -12.2 10
12:00 1019 30.09 848 25.04 8 46.3 23 -12.1 10.2
12:05 1019 30.09 848 25.04 7.6 45.7 23 -12.1 10.1
12:10 1019 30.09 848 25.04 7.8 46.1 23 -11.9 10.5
12:15 1019 30.09 848 25.04 8 46.4 24 -11.5 11.4
12:20 1018 30.06 848 25.04 8.1 46.6 26 -10.5 13.1
12:25 1018 30.06 847 25.01 8.1 46.6 25 -10.6 12.9
12:30 1018 30.06 847 25.01 8.4 47 25 -10.7 12.7
12:35 1018 30.06 847 25.01 8.1 46.6 26 -10.3 13.5
12:40 1018 30.06 847 25.01 6.9 44.4 28 -10.4 13.4
12:45 1018 30.06 847 25.01 7 44.5 26 -11.1 12.1
12:50 1017 30.03 847 25.01 7.3 45.1 28 -10.1 13.9
12:55 1017 30.03 846 24.98 6.4 43.6 29 -10.6 13
13:00 1017 30.03 846 24.98 7 44.6 26 -11.1 12
13:05 1017 30.03 846 24.98 8.3 46.9 24 -10.9 12.3
13:10 1017 30.03 846 24.98 8.3 46.9 25 -10.6 12.9
13:15 1017 30.03 846 24.98 8.8 47.8 24 -10.6 12.8
13:20 1017 30.03 846 24.98 9 48.1 23 -11 12.1
13:25 1017 30.03 846 24.98 9.1 48.4 24 -10.4 13.3
13:30 1017 30.03 846 24.98 9.1 48.3 24 -10.7 12.7
13:35 1017 30.03 846 24.98 9.1 48.4 23 -10.9 12.4
13:40 1017 30.03 846 24.98 9.6 49.2 23 -10.7 12.7
13:45 1017 30.03 846 24.98 9 48.3 24 -10.7 12.8
13:50 1017 30.03 846 24.98 9.4 48.8 23 -10.9 12.4
13:55 1017 30.03 846 24.98 9.7 49.4 23 -10.8 12.6
14:00 1017 30.03 846 24.98 9.7 49.4 23 -10.5 13.2
14:05 1017 30.03 846 24.98 9.5 49.2 23 -10.7 12.7
14:10 1017 30.03 846 24.98 10 49.9 22 -10.8 12.5
14:15 1017 30.03 846 24.98 10 50 23 -10.2 13.7
14:20 1017 30.03 846 24.98 9.9 49.9 22 -10.7 12.7
14:25 1017 30.03 846 24.98 10 50 23 -10.4 13.3
14:30 1017 30.03 846 24.98 9.7 49.4 22 -10.8 12.6
14:35 1017 30.03 846 24.98 9.7 49.5 22 -11.1 12
14:40 1016 30 846 24.98 10.5 50.8 21 -10.8 12.6
14:45 1016 30 846 24.98 10.7 51.2 21 -10.9 12.4
14:50 1016 30 846 24.98 11 51.7 21 -10.7 12.7
14:55 1016 30 846 24.98 10.9 51.7 21 -10.8 12.5
15:00 1016 30 845 24.95 10.6 51.1 21 -11 12.3
15:05 1016 30 845 24.95 10.7 51.3 21 -10.8 12.5
15:10 1016 30 845 24.95 10.8 51.4 21 -10.5 13
15:15 1016 30 845 24.95 10.7 51.3 21 -10.5 13.1
15:20 1016 30 845 24.95 10.6 51.1 22 -10.5 13.1
15:25 1016 30 845 24.95 11 51.7 20 -10.9 12.4
15:30 1016 30 845 24.95 10.8 51.4 22 -10.2 13.7
15:35 1016 30 845 24.95 10.3 50.5 22 -10.5 13.1
15:40 1016 30 845 24.95 10.3 50.5 23 -10.1 13.8
15:45 1016 30 845 24.95 9.5 49.1 24 -10 14
15:50 1016 30 845 24.95 9.9 49.9 23 -10.5 13.2
15:55 1016 30 845 24.95 10.3 50.6 23 -9.9 14.3
16:00 1016 30 845 24.95 9.8 49.7 23 -10.2 13.7
16:05 1016 30 845 24.95 9.7 49.5 23 -10.3 13.4
16:10 1016 30 845 24.95 10.1 50.2 22 -10.7 12.8
16:15 1015 29.97 845 24.95 10.5 50.9 22 -10.2 13.6
16:20 1015 29.97 845 24.95 10.4 50.6 23 -9.9 14.1
16:25 1015 29.97 844 24.92 9.8 49.7 23 -10.1 13.8
16:30 1015 29.97 844 24.92 9.7 49.4 23 -10.4 13.3
16:35 1015 29.97 844 24.92 10.2 50.4 23 -10 14
16:40 1015 29.97 844 24.92 10.3 50.5 23 -9.8 14.4
16:45 1015 29.97 844 24.92 10.3 50.6 24 -9.2 15.5
16:50 1015 29.97 844 24.92 9.6 49.2 25 -9.4 15.1
16:55 1015 29.97 844 24.92 9.2 48.5 26 -9.3 15.3
17:00 1015 29.97 844 24.92 8.7 47.6 27 -9.3 15.2
17:05 1015 29.97 844 24.92 8.6 47.5 26 -9.6 14.7
17:10 1015 29.97 844 24.92 8.5 47.4 27 -9.4 15.1
17:15 1015 29.97 844 24.92 8.2 46.7 26 -10 14
17:20 1015 29.97 844 24.92 7.7 45.9 29 -9.4 15.1
17:25 1014 29.94 844 24.92 7.5 45.4 32 -8.2 17.3
17:30 1014 29.94 844 24.92 6.9 44.4 35 -7.4 18.6
17:35 1014 29.94 844 24.92 6 42.8 39 -7.1 19.3
17:40 1014 29.94 844 24.92 5.8 42.4 39 -7 19.4
17:45 1014 29.94 844 24.92 5.3 41.6 38 -7.8 17.9
17:50 1014 29.94 843 24.89 4.8 40.7 40 -7.6 18.3
17:55 1014 29.94 844 24.92 4.5 40.1 42 -7.3 18.9
18:00 1014 29.94 843 24.89 4.2 39.6 41 -8 17.7
18:05 1014 29.94 843 24.89 4.1 39.3 40 -8.5 16.8
18:10 1014 29.94 843 24.89 3.9 39.1 39 -9 15.9
18:15 1014 29.94 843 24.89 3.7 38.7 40 -8.6 16.6
18:20 1014 29.94 843 24.89 3.4 38.1 41 -8.6 16.5
18:25 1014 29.94 843 24.89 3.5 38.2 37 -10 14.1
18:30 1014 29.94 843 24.89 4 39.3 37 -9.4 15.1
18:35 1014 29.94 843 24.89 3.5 38.3 41 -8.6 16.5
18:40 1014 29.94 843 24.89 3.8 38.9 37 -9.6 14.8
18:45 1014 29.94 843 24.89 3.9 39.1 39 -8.9 16
18:50 1014 29.94 843 24.89 4.2 39.5 37 -9.4 15.1
18:55 1014 29.94 843 24.89 4.3 39.7 35 -9.8 14.4
19:00 1014 29.94 843 24.89 3.9 39 37 -9.6 14.7
19:05 1014 29.94 843 24.89 3.6 38.4 38 -9.6 14.7
19:10 1014 29.94 843 24.89 3.4 38.1 37 -9.8 14.3
19:15 1014 29.94 843 24.89 3.4 38.1 35 -10.6 13
19:20 1014 29.94 843 24.89 3.6 38.4 35 -10.6 13
19:25 1014 29.94 843 24.89 3.7 38.6 34 -10.9 12.4
19:30 1014 29.94 843 24.89 3.7 38.7 32 -11.4 11.6
19:35 1014 29.94 843 24.89 3.9 39 33 -11 12.2
19:40 1014 29.94 843 24.89 3.2 37.7 38 -9.9 14.2
19:45 1013 29.91 843 24.89 3 37.4 34 -11.4 11.5
19:50 1013 29.91 843 24.89 3.4 38 34 -11.2 11.9
19:55 1013 29.91 843 24.89 3.1 37.6 33 -11.7 11
20:00 1013 29.91 843 24.89 2.7 36.8 36 -11.1 12.1
20:05 1013 29.91 843 24.89 2.6 36.6 34 -11.9 10.5
20:10 1013 29.91 842 24.86 3.1 37.5 31 -12.3 9.9
20:15 1013 29.91 842 24.86 3.1 37.6 31 -12.4 9.6
20:20 1013 29.91 842 24.86 3.5 38.2 28 -13.3 8
20:25 1013 29.91 842 24.86 3.4 38.2 30 -12.6 9.3
20:30 1013 29.91 842 24.86 2.7 36.9 34 -11.8 10.8
20:35 1013 29.91 842 24.86 2.8 37 32 -12.3 9.9
20:40 1013 29.91 842 24.86 3.1 37.6 29 -13.1 8.4
20:45 1013 29.91 842 24.86 3.3 38 33 -11.5 11.3
20:50 1013 29.91 842 24.86 2.7 36.8 34 -11.8 10.8
20:55 1013 29.91 842 24.86 2.4 36.4 33 -12.2 10
21:00 1012 29.88 842 24.86 2.8 37 32 -12.4 9.6
21:05 1012 29.88 842 24.86 3.3 37.9 29 -13.2 8.3
21:10 1012 29.88 842 24.86 3.3 37.9 29 -13.2 8.3
21:15 1012 29.88 841 24.83 4 39.2 25 -14.4 6.1
21:20 1012 29.88 841 24.83 4.2 39.6 26 -13.8 7.2
21:25 1012 29.88 841 24.83 3.7 38.7 27 -13.6 7.5
21:30 1012 29.88 841 24.83 3.4 38.1 28 -13.4 7.8
21:35 1012 29.88 841 24.83 3.4 38 27 -13.8 7.2
21:40 1012 29.88 841 24.83 3.4 38.2 30 -12.7 9.2
21:45 1012 29.88 841 24.83 3.1 37.6 31 -12.6 9.3
21:50 1012 29.88 841 24.83 2.8 37 31 -12.7 9.2
21:55 1012 29.88 841 24.83 2.8 37 31 -12.7 9.1
22:00 1012 29.88 841 24.83 3 37.3 29 -13.6 7.5
22:05 1012 29.88 841 24.83 3 37.3 32 -12.2 10.1
22:10 1012 29.88 841 24.83 1.6 34.8 36 -11.9 10.6
22:15 1012 29.88 841 24.83 1.9 35.5 32 -13.2 8.2
22:20 1012 29.88 841 24.83 2.3 36.2 33 -12.6 9.4
22:25 1012 29.88 841 24.83 2.6 36.6 30 -13.4 7.8
22:30 1012 29.88 841 24.83 3.2 37.8 28 -13.6 7.6
22:35 1012 29.88 841 24.83 3.2 37.7 28 -13.5 7.7
22:40 1012 29.88 841 24.83 3 37.5 29 -13.4 7.9
22:45 1011 29.85 841 24.83 2.6 36.7 31 -12.9 8.9
22:50 1011 29.85 841 24.83 2.2 35.9 32 -13 8.5
22:55 1011 29.85 841 24.83 2.2 36 31 -13.3 8.1
23:00 1011 29.85 840 24.81 2.4 36.3 31 -13.3 8
23:05 1011 29.85 840 24.81 2.2 36 31 -13.3 8
23:10 1011 29.85 840 24.81 2.1 35.8 32 -12.8 8.9
23:15 1011 29.85 840 24.81 1.9 35.4 32 -13.2 8.2
23:20 1011 29.85 840 24.81 1.8 35.2 33 -13 8.5
23:25 1011 29.85 840 24.81 1.2 34.2 37 -11.9 10.6
23:30 1011 29.85 840 24.81 0.7 33.3 35 -13.2 8.2
23:35 1011 29.85 840 24.81 1.9 35.4 32 -13 8.6
23:40 1011 29.85 840 24.81 1.6 34.8 33 -12.9 8.8
23:45 1011 29.85 840 24.81 1.1 34 35 -12.9 8.8
23:50 1011 29.85 840 24.81 1 33.9 34 -13.1 8.4
23:55 1011 29.85 840 24.81 1.1 34.1 34 -13 8.7
24:00 1011 29.85 840 24.81 1.1 34 34 -13 8.6